Sant Just Desvern, Spain
Current Conditions -  °F | °C
As of 8:00 PM on Monday 20 Oct 2014 (Local Time) from LEBL Reporting Station
Few Clouds Few Clouds  
Wind Chill: 22°   Ceiling: Unl
Heat Index: 22°   Visibility: 6mi
Dew Point: 16°   Wind: 14mph
Humidity: 69%   Direction: 220°SW
Pressure: 30.09"   Gusts: NA
Location:  41.39°N, 2.08°E
Report Text: LEBL 201800Z 22012KT 9999 FEW010 22/16 Q1019 NOSIG
Loading
Personal Weather Stations






























Interactive Weather Map
Tropical Storm Tracking
New forecast layout! Learn more

10-Day Weather Forecast

Advertisements
Track Severe Weather on mobile